This is the latest recevied weather packets stored in our database for station/object HS5FXK-3. If no packets are shown the sender has not sent any weather packets the latest 10 day(s).
| Time | Temp. | Humidity | Pressure | Rain* | Wind** | Luminosity | Snow |
|---|---|---|---|---|---|---|---|
| 1777426096 | 30° C | 56% | 980 hPa | - | - | 0 W/m² | - |
| 1777425183 | 28.89° C | 59% | 980 hPa | - | - | 0 W/m² | - |
| 1777424271 | 28.33° C | 61% | 980 hPa | - | - | 0 W/m² | - |
| 1777423359 | 27.78° C | 66% | 980 hPa | - | - | 0 W/m² | - |
| 1777422447 | 27.22° C | 68% | 979 hPa | - | - | 0 W/m² | - |
| 1777421534 | 26.67° C | 70% | 979 hPa | - | - | 0 W/m² | - |
| 1777420622 | 26.11° C | 71% | 979 hPa | - | - | 0 W/m² | - |
| 1777419710 | 26.11° C | 71% | 979 hPa | - | - | 0 W/m² | - |
| 1777418798 | 25.56° C | 71% | 979 hPa | - | - | 0 W/m² | - |
| 1777417886 | 25.56° C | 71% | 978 hPa | - | - | 0 W/m² | - |
| 1777416973 | 25.56° C | 69% | 978 hPa | - | - | 0 W/m² | - |
| 1777416317 | 25.56° C | 69% | 978 hPa | - | - | 0 W/m² | - |
| 1777415580 | 25.56° C | 69% | 978 hPa | - | - | 0 W/m² | - |
| 1777414667 | 25.56° C | 69% | 978 hPa | - | - | 0 W/m² | - |
| 1777414466 | 25.56° C | 68% | 978 hPa | - | - | 0 W/m² | - |
| 1777413554 | 26.11° C | 66% | 978 hPa | - | - | 0 W/m² | - |
| 1777412641 | 26.11° C | 66% | 978 hPa | - | - | 0 W/m² | - |
| 1777411730 | 26.11° C | 65% | 977 hPa | - | - | 0 W/m² | - |
| 1777410817 | 26.11° C | 64% | 977 hPa | - | - | 0 W/m² | - |
| 1777409905 | 26.67° C | 64% | 977 hPa | - | - | 0 W/m² | - |
| 1777408993 | 26.67° C | 63% | 977 hPa | - | - | 0 W/m² | - |
| 1777408080 | 26.67° C | 62% | 977 hPa | - | - | 0 W/m² | - |
| 1777407168 | 27.22° C | 61% | 977 hPa | - | - | 0 W/m² | - |
| 1777406256 | 27.22° C | 60% | 977 hPa | - | - | 0 W/m² | - |
| 1777406085 | 27.22° C | 60% | 977 hPa | - | - | 0 W/m² | - |
* Rain since midnight (hover to see other rain measurements)
** Current wind speed in m/s (hover to see current wind gust speed)